ESST/TYF METAR and TAF weather

Enter ICAO airport designator
Station Type Date Time Source
ESST METAR 2019/12/13 14:20 UTC NOAA

ESST 131420Z AUTO 10004KT 060V130 8000 OVC014/// 02/01 Q0992


Station Type Date Time Source
ESST Decoded METAR 2019/12/13 14:20 UTC NOAA

Station name not available
Dec 13, 2019 - 09:20 AM EST / 2019.12.13 1420 UTC
Wind: from the E (100 degrees) at 5 MPH (4 KT) (direction variable):0
Visibility: 4 mile(s):0
Sky conditions: overcast
Temperature: 35 F (2 C)
Windchill: 30 F (-1 C):1
Dew Point: 33 F (1 C)
Relative Humidity: 93%
Pressure (altimeter): 29.29 in. Hg (0992 hPa)
ob: ESST 131420Z AUTO 10004KT 060V130 8000 OVC014/// 02/01 Q0992
cycle: 14

Station Type Date Time Source
ESST TAF UTC NOAA

Error!

Example: see airport list